sensor_id;sensor_type;location;lat;lon;timestamp;pressure;altitude;pressure_sealevel;temperature;humidity
23176;BME280;19910;42.652;23.332;2023-08-12T00:02:03;95156.91;;;16.77;80.51
23176;BME280;19910;42.652;23.332;2023-08-12T00:04:30;95156.72;;;16.70;80.57
23176;BME280;19910;42.652;23.332;2023-08-12T00:06:59;95156.28;;;16.68;80.77
23176;BME280;19910;42.652;23.332;2023-08-12T00:09:26;95152.69;;;16.64;80.89
23176;BME280;19910;42.652;23.332;2023-08-12T00:11:53;95151.75;;;16.60;81.01
23176;BME280;19910;42.652;23.332;2023-08-12T00:14:22;95162.03;;;16.63;80.91
23176;BME280;19910;42.652;23.332;2023-08-12T00:16:49;95158.81;;;16.61;80.43
23176;BME280;19910;42.652;23.332;2023-08-12T00:19:16;95152.47;;;16.57;81.03
23176;BME280;19910;42.652;23.332;2023-08-12T00:21:43;95145.84;;;16.58;80.90
23176;BME280;19910;42.652;23.332;2023-08-12T00:24:10;95150.88;;;16.56;80.57
23176;BME280;19910;42.652;23.332;2023-08-12T00:26:37;95145.06;;;16.57;80.28
23176;BME280;19910;42.652;23.332;2023-08-12T00:29:04;95145.06;;;16.57;80.09
23176;BME280;19910;42.652;23.332;2023-08-12T00:31:33;95147.00;;;16.57;79.87
23176;BME280;19910;42.652;23.332;2023-08-12T00:34:00;95145.25;;;16.49;80.47
23176;BME280;19910;42.652;23.332;2023-08-12T00:36:27;95148.88;;;16.53;80.34
23176;BME280;19910;42.652;23.332;2023-08-12T00:38:54;95138.19;;;16.48;80.12
23176;BME280;19910;42.652;23.332;2023-08-12T00:41:21;95147.00;;;16.57;80.41
23176;BME280;19910;42.652;23.332;2023-08-12T00:43:48;95142.22;;;16.54;80.20
23176;BME280;19910;42.652;23.332;2023-08-12T00:46:15;95137.47;;;16.51;80.89
23176;BME280;19910;42.652;23.332;2023-08-12T00:48:44;95140.91;;;16.48;80.88
23176;BME280;19910;42.652;23.332;2023-08-12T00:51:11;95134.31;;;16.49;81.03
23176;BME280;19910;42.652;23.332;2023-08-12T00:53:39;95137.47;;;16.51;81.41
23176;BME280;19910;42.652;23.332;2023-08-12T00:56:06;95138.72;;;16.38;81.00
23176;BME280;19910;42.652;23.332;2023-08-12T00:58:34;95137.97;;;16.41;81.10
23176;BME280;19910;42.652;23.332;2023-08-12T01:01:01;95134.56;;;16.44;81.70
23176;BME280;19910;42.652;23.332;2023-08-12T01:03:28;95132.59;;;16.44;81.00
23176;BME280;19910;42.652;23.332;2023-08-12T01:05:57;95137.97;;;16.41;80.69
23176;BME280;19910;42.652;23.332;2023-08-12T01:08:30;95134.03;;;16.38;81.54
23176;BME280;19910;42.652;23.332;2023-08-12T01:11:03;95127.03;;;16.41;81.21
23176;BME280;19910;42.652;23.332;2023-08-12T01:14:01;95124.59;;;16.35;81.46
23176;BME280;19910;42.652;23.332;2023-08-12T01:16:32;95128.47;;;16.34;81.03
23176;BME280;19910;42.652;23.332;2023-08-12T01:19:05;95133.03;;;16.30;81.43
23176;BME280;19910;42.652;23.332;2023-08-12T01:21:36;95127.56;;;16.30;81.26
23176;BME280;19910;42.652;23.332;2023-08-12T01:24:09;95137.28;;;16.12;81.28
23176;BME280;19910;42.652;23.332;2023-08-12T01:26:36;95124.03;;;16.14;80.73
23176;BME280;19910;42.652;23.332;2023-08-12T01:29:06;95129.75;;;16.09;81.13
23176;BME280;19910;42.652;23.332;2023-08-12T01:31:37;95122.44;;;16.13;80.35
23176;BME280;19910;42.652;23.332;2023-08-12T01:34:12;95118.56;;;16.14;79.60
23176;BME280;19910;42.652;23.332;2023-08-12T01:36:47;95122.44;;;16.13;80.87
23176;BME280;19910;42.652;23.332;2023-08-12T01:39:18;95122.88;;;16.15;80.60
23176;BME280;19910;42.652;23.332;2023-08-12T01:41:46;95123.84;;;16.07;79.94
23176;BME280;19910;42.652;23.332;2023-08-12T01:44:14;95125.16;;;15.97;80.06
23176;BME280;19910;42.652;23.332;2023-08-12T01:46:43;95114.22;;;15.97;80.33
23176;BME280;19910;42.652;23.332;2023-08-12T01:49:10;95125.16;;;15.97;81.11
23176;BME280;19910;42.652;23.332;2023-08-12T01:51:38;95123.91;;;15.95;81.15
23176;BME280;19910;42.652;23.332;2023-08-12T01:54:05;95122.16;;;16.03;81.10
23176;BME280;19910;42.652;23.332;2023-08-12T01:56:34;95128.25;;;15.96;80.83
23176;BME280;19910;42.652;23.332;2023-08-12T01:59:01;95125.56;;;15.84;80.97
23176;BME280;19910;42.652;23.332;2023-08-12T02:01:30;95118.16;;;15.84;81.05
23176;BME280;19910;42.652;23.332;2023-08-12T02:03:57;95127.63;;;15.75;81.17
23176;BME280;19910;42.652;23.332;2023-08-12T02:06:25;95119.00;;;15.73;80.78
23176;BME280;19910;42.652;23.332;2023-08-12T02:08:52;95122.84;;;15.72;80.74
23176;BME280;19910;42.652;23.332;2023-08-12T02:11:19;95124.84;;;15.87;79.84
23176;BME280;19910;42.652;23.332;2023-08-12T02:13:49;95125.75;;;15.91;79.26
23176;BME280;19910;42.652;23.332;2023-08-12T02:16:20;95130.53;;;15.94;78.92
23176;BME280;19910;42.652;23.332;2023-08-12T02:18:51;95124.38;;;15.97;78.24
23176;BME280;19910;42.652;23.332;2023-08-12T02:21:20;95121.75;;;15.88;79.01
23176;BME280;19910;42.652;23.332;2023-08-12T02:23:58;95126.44;;;15.88;78.79
23176;BME280;19910;42.652;23.332;2023-08-12T02:26:31;95127.88;;;15.97;77.82
23176;BME280;19910;42.652;23.332;2023-08-12T02:29:08;95124.38;;;15.97;77.74
23176;BME280;19910;42.652;23.332;2023-08-12T02:31:35;95122.56;;;15.89;77.81
23176;BME280;19910;42.652;23.332;2023-08-12T02:34:06;95128.66;;;15.82;78.20
23176;BME280;19910;42.652;23.332;2023-08-12T02:36:37;95129.34;;;15.79;79.01
23176;BME280;19910;42.652;23.332;2023-08-12T02:39:05;95125.81;;;15.79;79.46
23176;BME280;19910;42.652;23.332;2023-08-12T02:41:33;95131.28;;;15.79;79.32
23176;BME280;19910;42.652;23.332;2023-08-12T02:44:13;95139.25;;;15.72;79.57
23176;BME280;19910;42.652;23.332;2023-08-12T02:46:41;95140.31;;;15.67;80.12
23176;BME280;19910;42.652;23.332;2023-08-12T02:49:08;95137.22;;;15.69;79.71
23176;BME280;19910;42.652;23.332;2023-08-12T02:51:39;95137.22;;;15.69;79.62
23176;BME280;19910;42.652;23.332;2023-08-12T02:54:06;95129.03;;;15.69;79.25
23176;BME280;19910;42.652;23.332;2023-08-12T02:56:38;95139.06;;;15.64;79.50
23176;BME280;19910;42.652;23.332;2023-08-12T02:59:07;95140.88;;;15.60;79.59
23176;BME280;19910;42.652;23.332;2023-08-12T03:01:34;95144.53;;;15.52;80.49
23176;BME280;19910;42.652;23.332;2023-08-12T03:04:01;95141.34;;;15.50;80.16
23176;BME280;19910;42.652;23.332;2023-08-12T03:06:28;95146.63;;;15.55;80.34
23176;BME280;19910;42.652;23.332;2023-08-12T03:08:56;95142.94;;;15.51;79.89
23176;BME280;19910;42.652;23.332;2023-08-12T03:11:23;95142.03;;;15.47;80.50
23176;BME280;19910;42.652;23.332;2023-08-12T03:13:50;95145.13;;;15.58;81.16
23176;BME280;19910;42.652;23.332;2023-08-12T03:16:19;95147.50;;;15.59;80.69
23176;BME280;19910;42.652;23.332;2023-08-12T03:18:47;95145.91;;;15.58;80.08
23176;BME280;19910;42.652;23.332;2023-08-12T03:21:14;95154.53;;;15.60;80.25
23176;BME280;19910;42.652;23.332;2023-08-12T03:23:41;95140.44;;;15.58;80.89
23176;BME280;19910;42.652;23.332;2023-08-12T03:26:08;95147.50;;;15.59;81.42
23176;BME280;19910;42.652;23.332;2023-08-12T03:28:39;95148.28;;;15.60;81.22
23176;BME280;19910;42.652;23.332;2023-08-12T03:31:08;95144.34;;;15.57;81.49
23176;BME280;19910;42.652;23.332;2023-08-12T03:33:37;95155.25;;;15.57;81.73
23176;BME280;19910;42.652;23.332;2023-08-12T03:36:04;95158.66;;;15.54;82.96
23176;BME280;19910;42.652;23.332;2023-08-12T03:38:31;95156.13;;;15.61;82.63
23176;BME280;19910;42.652;23.332;2023-08-12T03:40:58;95146.91;;;15.66;84.27
23176;BME280;19910;42.652;23.332;2023-08-12T03:43:25;95150.22;;;16.15;83.01
23176;BME280;19910;42.652;23.332;2023-08-12T03:45:54;95157.88;;;16.69;79.61
23176;BME280;19910;42.652;23.332;2023-08-12T03:48:21;95150.22;;;17.60;77.20
23176;BME280;19910;42.652;23.332;2023-08-12T03:50:50;95137.81;;;18.47;74.17
23176;BME280;19910;42.652;23.332;2023-08-12T03:53:17;95144.72;;;19.32;72.14
23176;BME280;19910;42.652;23.332;2023-08-12T03:55:45;95141.81;;;20.08;68.80
23176;BME280;19910;42.652;23.332;2023-08-12T03:58:12;95138.25;;;20.81;65.89
23176;BME280;19910;42.652;23.332;2023-08-12T04:00:40;95139.53;;;21.46;63.58
23176;BME280;19910;42.652;23.332;2023-08-12T04:03:08;95137.09;;;21.99;60.97
23176;BME280;19910;42.652;23.332;2023-08-12T04:05:35;95137.22;;;22.38;59.42
23176;BME280;19910;42.652;23.332;2023-08-12T04:08:04;95133.75;;;23.12;57.69
23176;BME280;19910;42.652;23.332;2023-08-12T04:10:35;95123.06;;;23.60;53.55
23176;BME280;19910;42.652;23.332;2023-08-12T04:13:03;95134.50;;;23.66;55.03
23176;BME280;19910;42.652;23.332;2023-08-12T04:15:33;95128.06;;;24.04;52.81
23176;BME280;19910;42.652;23.332;2023-08-12T04:18:01;95131.56;;;24.23;51.54
23176;BME280;19910;42.652;23.332;2023-08-12T04:20:29;95127.97;;;24.99;49.38
23176;BME280;19910;42.652;23.332;2023-08-12T04:22:56;95125.69;;;25.31;48.70
23176;BME280;19910;42.652;23.332;2023-08-12T04:25:27;95129.66;;;25.75;47.20
23176;BME280;19910;42.652;23.332;2023-08-12T04:27:55;95125.94;;;26.23;45.80
23176;BME280;19910;42.652;23.332;2023-08-12T04:30:23;95133.44;;;26.56;44.88
23176;BME280;19910;42.652;23.332;2023-08-12T04:32:52;95125.88;;;26.83;44.05
23176;BME280;19910;42.652;23.332;2023-08-12T04:35:22;95121.34;;;26.97;42.86
23176;BME280;19910;42.652;23.332;2023-08-12T04:37:50;95132.94;;;25.63;45.26
23176;BME280;19910;42.652;23.332;2023-08-12T04:40:17;95138.19;;;25.91;45.06
23176;BME280;19910;42.652;23.332;2023-08-12T04:42:50;95132.19;;;26.30;44.69
23176;BME280;19910;42.652;23.332;2023-08-12T04:45:23;95143.50;;;26.12;45.13
23176;BME280;19910;42.652;23.332;2023-08-12T04:47:51;95135.34;;;26.89;43.50
23176;BME280;19910;42.652;23.332;2023-08-12T04:50:18;95123.66;;;27.48;42.75
23176;BME280;19910;42.652;23.332;2023-08-12T04:52:45;95130.78;;;27.96;42.34
23176;BME280;19910;42.652;23.332;2023-08-12T04:55:12;95124.00;;;28.37;40.23
23176;BME280;19910;42.652;23.332;2023-08-12T04:57:39;95127.31;;;29.20;39.11
23176;BME280;19910;42.652;23.332;2023-08-12T05:00:09;95124.06;;;28.89;38.40
23176;BME280;19910;42.652;23.332;2023-08-12T05:02:36;95135.66;;;27.69;39.86
23176;BME280;19910;42.652;23.332;2023-08-12T05:05:04;95136.38;;;27.26;39.54
23176;BME280;19910;42.652;23.332;2023-08-12T05:07:31;95125.41;;;28.45;39.07
23176;BME280;19910;42.652;23.332;2023-08-12T05:09:59;95150.84;;;26.30;41.52
23176;BME280;19910;42.652;23.332;2023-08-12T05:12:28;95154.69;;;23.27;47.90
23176;BME280;19910;42.652;23.332;2023-08-12T05:14:55;95161.81;;;23.21;48.97
23176;BME280;19910;42.652;23.332;2023-08-12T05:17:23;95175.28;;;21.35;53.68
23176;BME280;19910;42.652;23.332;2023-08-12T05:19:50;95171.38;;;21.36;54.37
23176;BME280;19910;42.652;23.332;2023-08-12T05:22:18;95162.22;;;21.87;53.30
23176;BME280;19910;42.652;23.332;2023-08-12T05:24:45;95165.59;;;22.42;51.88
23176;BME280;19910;42.652;23.332;2023-08-12T05:27:12;95164.84;;;22.38;52.31
23176;BME280;19910;42.652;23.332;2023-08-12T05:29:38;95173.03;;;22.17;52.78
23176;BME280;19910;42.652;23.332;2023-08-12T05:32:06;95164.59;;;21.88;53.80
23176;BME280;19910;42.652;23.332;2023-08-12T05:34:35;95163.78;;;23.10;51.52
23176;BME280;19910;42.652;23.332;2023-08-12T05:37:01;95157.84;;;23.19;49.99
23176;BME280;19910;42.652;23.332;2023-08-12T05:39:28;95166.75;;;24.29;48.86
23176;BME280;19910;42.652;23.332;2023-08-12T05:41:55;95160.16;;;23.91;48.18
23176;BME280;19910;42.652;23.332;2023-08-12T05:44:22;95172.84;;;23.71;50.07
23176;BME280;19910;42.652;23.332;2023-08-12T05:46:49;95163.34;;;23.72;49.56
23176;BME280;19910;42.652;23.332;2023-08-12T05:49:16;95161.69;;;23.99;48.47
23176;BME280;19910;42.652;23.332;2023-08-12T05:51:44;95157.34;;;24.86;46.13
23176;BME280;19910;42.652;23.332;2023-08-12T05:54:11;95159.84;;;24.62;46.19
23176;BME280;19910;42.652;23.332;2023-08-12T05:56:38;95165.06;;;26.01;44.32
23176;BME280;19910;42.652;23.332;2023-08-12T05:59:05;95157.19;;;25.96;43.16
23176;BME280;19910;42.652;23.332;2023-08-12T06:01:33;95145.94;;;27.25;41.31
23176;BME280;19910;42.652;23.332;2023-08-12T06:04:00;95138.53;;;27.85;38.94
23176;BME280;19910;42.652;23.332;2023-08-12T06:06:27;95137.28;;;28.09;39.47
23176;BME280;19910;42.652;23.332;2023-08-12T06:08:56;95149.25;;;27.16;40.73
23176;BME280;19910;42.652;23.332;2023-08-12T06:11:22;95132.97;;;27.38;39.98
23176;BME280;19910;42.652;23.332;2023-08-12T06:13:50;95135.41;;;27.36;39.93
23176;BME280;19910;42.652;23.332;2023-08-12T06:16:17;95131.84;;;29.14;37.43
23176;BME280;19910;42.652;23.332;2023-08-12T06:18:44;95121.38;;;29.18;37.53
23176;BME280;19910;42.652;23.332;2023-08-12T06:21:11;95127.53;;;27.54;39.98
23176;BME280;19910;42.652;23.332;2023-08-12T06:23:37;95134.22;;;27.61;40.65
23176;BME280;19910;42.652;23.332;2023-08-12T06:26:06;95131.84;;;29.14;38.03
23176;BME280;19910;42.652;23.332;2023-08-12T06:28:33;95121.81;;;29.94;36.53
23176;BME280;19910;42.652;23.332;2023-08-12T06:31:00;95121.19;;;30.31;35.47
23176;BME280;19910;42.652;23.332;2023-08-12T06:33:27;95124.97;;;30.25;35.67
23176;BME280;19910;42.652;23.332;2023-08-12T06:35:56;95128.94;;;29.01;36.74
23176;BME280;19910;42.652;23.332;2023-08-12T06:38:26;95129.59;;;29.09;36.09
23176;BME280;19910;42.652;23.332;2023-08-12T06:40:54;95113.97;;;29.89;35.95
23176;BME280;19910;42.652;23.332;2023-08-12T06:43:22;95115.72;;;29.99;36.36
23176;BME280;19910;42.652;23.332;2023-08-12T06:45:49;95109.28;;;31.45;34.20
23176;BME280;19910;42.652;23.332;2023-08-12T06:48:16;95110.03;;;31.58;33.26
23176;BME280;19910;42.652;23.332;2023-08-12T06:50:43;95109.44;;;32.54;31.99
23176;BME280;19910;42.652;23.332;2023-08-12T06:53:11;95113.19;;;29.59;36.53
23176;BME280;19910;42.652;23.332;2023-08-12T06:55:43;95098.78;;;31.84;33.45
23176;BME280;19910;42.652;23.332;2023-08-12T06:58:10;95108.88;;;32.37;33.06
23176;BME280;19910;42.652;23.332;2023-08-12T07:00:39;95111.25;;;31.57;33.26
23176;BME280;19910;42.652;23.332;2023-08-12T07:03:06;95100.06;;;31.57;33.73
23176;BME280;19910;42.652;23.332;2023-08-12T07:05:32;95102.28;;;31.62;33.12
23176;BME280;19910;42.652;23.332;2023-08-12T07:07:59;95110.94;;;30.41;34.99
23176;BME280;19910;42.652;23.332;2023-08-12T07:10:26;95109.28;;;29.86;36.09
23176;BME280;19910;42.652;23.332;2023-08-12T07:12:53;95113.97;;;29.89;36.07
23176;BME280;19910;42.652;23.332;2023-08-12T07:15:20;95104.81;;;29.43;37.01
23176;BME280;19910;42.652;23.332;2023-08-12T07:17:48;95115.75;;;28.85;37.97
23176;BME280;19910;42.652;23.332;2023-08-12T07:20:15;95108.97;;;28.30;37.35
23176;BME280;19910;42.652;23.332;2023-08-12T07:22:43;95113.09;;;28.62;37.92
23176;BME280;19910;42.652;23.332;2023-08-12T07:25:10;95106.94;;;30.13;35.79
23176;BME280;19910;42.652;23.332;2023-08-12T07:27:37;95098.97;;;29.83;35.78
23176;BME280;19910;42.652;23.332;2023-08-12T07:30:04;95114.25;;;28.45;37.94
23176;BME280;19910;42.652;23.332;2023-08-12T07:32:31;95106.88;;;29.55;36.50
23176;BME280;19910;42.652;23.332;2023-08-12T07:35:00;95106.66;;;27.43;38.94
23176;BME280;19910;42.652;23.332;2023-08-12T07:37:30;95110.38;;;27.59;39.44
23176;BME280;19910;42.652;23.332;2023-08-12T07:39:57;95105.41;;;28.50;37.62
23176;BME280;19910;42.652;23.332;2023-08-12T07:42:24;95101.63;;;28.40;38.13
23176;BME280;19910;42.652;23.332;2023-08-12T07:44:51;95095.03;;;29.19;37.16
23176;BME280;19910;42.652;23.332;2023-08-12T07:47:18;95103.25;;;27.58;39.65
23176;BME280;19910;42.652;23.332;2023-08-12T07:49:45;95099.63;;;28.21;38.29
23176;BME280;19910;42.652;23.332;2023-08-12T07:52:13;95095.56;;;29.30;36.91
23176;BME280;19910;42.652;23.332;2023-08-12T07:54:40;95097.16;;;27.64;39.27
23176;BME280;19910;42.652;23.332;2023-08-12T07:57:07;95089.84;;;28.33;39.34
23176;BME280;19910;42.652;23.332;2023-08-12T07:59:34;95090.38;;;27.65;39.75
23176;BME280;19910;42.652;23.332;2023-08-12T08:02:01;95096.91;;;27.08;40.97
23176;BME280;19910;42.652;23.332;2023-08-12T08:04:28;95081.78;;;28.18;38.76
23176;BME280;19910;42.652;23.332;2023-08-12T08:06:54;95079.53;;;27.90;38.66
23176;BME280;19910;42.652;23.332;2023-08-12T08:09:23;95084.78;;;27.88;38.94
23176;BME280;19910;42.652;23.332;2023-08-12T08:11:50;95088.13;;;27.99;38.42
23176;BME280;19910;42.652;23.332;2023-08-12T08:14:17;95081.56;;;27.70;38.79
23176;BME280;19910;42.652;23.332;2023-08-12T08:16:44;95075.75;;;27.37;40.19
23176;BME280;19910;42.652;23.332;2023-08-12T08:19:11;95083.13;;;27.71;39.76
23176;BME280;19910;42.652;23.332;2023-08-12T08:21:37;95084.84;;;27.84;37.63
23176;BME280;19910;42.652;23.332;2023-08-12T08:24:05;95079.53;;;28.29;37.65
23176;BME280;19910;42.652;23.332;2023-08-12T08:26:33;95079.47;;;28.13;37.35
23176;BME280;19910;42.652;23.332;2023-08-12T08:29:00;95081.66;;;27.63;40.05
23176;BME280;19910;42.652;23.332;2023-08-12T08:31:27;95084.69;;;27.72;38.47
23176;BME280;19910;42.652;23.332;2023-08-12T08:33:54;95085.78;;;27.08;40.77
23176;BME280;19910;42.652;23.332;2023-08-12T08:36:21;95086.03;;;26.94;40.49
23176;BME280;19910;42.652;23.332;2023-08-12T08:38:48;95082.94;;;26.61;39.92
23176;BME280;19910;42.652;23.332;2023-08-12T08:41:16;95079.94;;;26.75;41.13
23176;BME280;19910;42.652;23.332;2023-08-12T08:43:48;95075.03;;;27.33;39.99
23176;BME280;19910;42.652;23.332;2023-08-12T08:46:15;95069.84;;;27.58;39.94
23176;BME280;19910;42.652;23.332;2023-08-12T08:48:43;95068.50;;;27.43;39.18
23176;BME280;19910;42.652;23.332;2023-08-12T08:51:11;95075.53;;;27.05;40.41
23176;BME280;19910;42.652;23.332;2023-08-12T08:53:38;95065.38;;;27.18;39.37
23176;BME280;19910;42.652;23.332;2023-08-12T08:56:06;95075.47;;;26.24;40.42
23176;BME280;19910;42.652;23.332;2023-08-12T08:58:33;95077.38;;;26.00;40.73
23176;BME280;19910;42.652;23.332;2023-08-12T09:01:02;95079.44;;;25.96;41.19
23176;BME280;19910;42.652;23.332;2023-08-12T09:03:29;95071.34;;;26.09;43.13
23176;BME280;19910;42.652;23.332;2023-08-12T09:05:56;95074.13;;;25.75;41.39
23176;BME280;19910;42.652;23.332;2023-08-12T09:08:25;95069.53;;;25.95;40.86
23176;BME280;19910;42.652;23.332;2023-08-12T09:10:54;95059.44;;;26.39;40.18
23176;BME280;19910;42.652;23.332;2023-08-12T09:13:21;95054.50;;;26.77;40.01
23176;BME280;19910;42.652;23.332;2023-08-12T09:15:48;95045.06;;;26.71;39.95
23176;BME280;19910;42.652;23.332;2023-08-12T09:18:17;95063.78;;;25.79;40.54
23176;BME280;19910;42.652;23.332;2023-08-12T09:20:44;95061.22;;;25.95;41.90
23176;BME280;19910;42.652;23.332;2023-08-12T09:23:11;95051.19;;;26.01;41.04
23176;BME280;19910;42.652;23.332;2023-08-12T09:25:41;95053.91;;;26.08;40.73
23176;BME280;19910;42.652;23.332;2023-08-12T09:28:09;95042.16;;;26.24;40.72
23176;BME280;19910;42.652;23.332;2023-08-12T09:30:37;95047.47;;;26.11;40.23
23176;BME280;19910;42.652;23.332;2023-08-12T09:33:05;95040.28;;;25.87;41.39
23176;BME280;19910;42.652;23.332;2023-08-12T09:35:36;95038.75;;;26.13;40.70
23176;BME280;19910;42.652;23.332;2023-08-12T09:38:05;95041.09;;;25.84;41.02
23176;BME280;19910;42.652;23.332;2023-08-12T09:40:34;95026.00;;;26.46;40.16
23176;BME280;19910;42.652;23.332;2023-08-12T09:43:01;95011.84;;;27.10;39.75
23176;BME280;19910;42.652;23.332;2023-08-12T09:45:29;95011.59;;;27.68;39.16
23176;BME280;19910;42.652;23.332;2023-08-12T09:47:56;95015.53;;;27.27;39.05
23176;BME280;19910;42.652;23.332;2023-08-12T09:50:24;95021.09;;;27.27;37.79
23176;BME280;19910;42.652;23.332;2023-08-12T09:52:53;95010.41;;;27.45;39.14
23176;BME280;19910;42.652;23.332;2023-08-12T09:55:21;95011.00;;;27.96;38.17
23176;BME280;19910;42.652;23.332;2023-08-12T09:57:51;94998.28;;;27.55;37.88
23176;BME280;19910;42.652;23.332;2023-08-12T10:00:19;94995.47;;;27.59;38.17
23176;BME280;19910;42.652;23.332;2023-08-12T10:02:48;95002.25;;;27.58;37.84
23176;BME280;19910;42.652;23.332;2023-08-12T10:05:19;94993.31;;;27.23;37.81
23176;BME280;19910;42.652;23.332;2023-08-12T10:07:48;95013.47;;;27.08;38.38
23176;BME280;19910;42.652;23.332;2023-08-12T10:10:17;94999.56;;;26.84;38.16
23176;BME280;19910;42.652;23.332;2023-08-12T10:12:45;95003.44;;;26.90;38.30
23176;BME280;19910;42.652;23.332;2023-08-12T10:15:14;94993.16;;;27.11;38.08
23176;BME280;19910;42.652;23.332;2023-08-12T10:17:41;94995.63;;;27.29;37.76
23176;BME280;19910;42.652;23.332;2023-08-12T10:20:12;94989.72;;;27.46;37.27
23176;BME280;19910;42.652;23.332;2023-08-12T10:22:42;94991.78;;;27.42;37.13
23176;BME280;19910;42.652;23.332;2023-08-12T10:25:13;94983.19;;;27.56;37.22
23176;BME280;19910;42.652;23.332;2023-08-12T10:27:42;94987.56;;;27.54;36.51
23176;BME280;19910;42.652;23.332;2023-08-12T10:30:10;94983.59;;;28.11;35.88
23176;BME280;19910;42.652;23.332;2023-08-12T10:32:38;94981.25;;;28.09;35.61
23176;BME280;19910;42.652;23.332;2023-08-12T10:35:06;94980.84;;;27.51;38.03
23176;BME280;19910;42.652;23.332;2023-08-12T10:37:34;94974.88;;;27.33;37.97
23176;BME280;19910;42.652;23.332;2023-08-12T10:40:03;94969.88;;;27.84;37.07
23176;BME280;19910;42.652;23.332;2023-08-12T10:42:45;94964.59;;;28.58;35.81
23176;BME280;19910;42.652;23.332;2023-08-12T10:45:15;94959.56;;;28.85;36.27
23176;BME280;19910;42.652;23.332;2023-08-12T10:47:48;94966.09;;;28.46;35.08
23176;BME280;19910;42.652;23.332;2023-08-12T10:50:19;94966.56;;;27.89;36.14
23176;BME280;19910;42.652;23.332;2023-08-12T10:52:47;94961.16;;;27.82;36.36
23176;BME280;19910;42.652;23.332;2023-08-12T10:55:21;94952.72;;;27.26;36.66
23176;BME280;19910;42.652;23.332;2023-08-12T10:57:50;94953.59;;;27.23;36.76
23176;BME280;19910;42.652;23.332;2023-08-12T11:00:19;94946.69;;;27.31;37.05
23176;BME280;19910;42.652;23.332;2023-08-12T11:02:49;94947.06;;;27.89;36.16
23176;BME280;19910;42.652;23.332;2023-08-12T11:05:17;94930.56;;;27.98;37.73
23176;BME280;19910;42.652;23.332;2023-08-12T11:07:46;94936.22;;;27.58;37.70
23176;BME280;19910;42.652;23.332;2023-08-12T11:10:15;94942.19;;;27.17;37.38
23176;BME280;19910;42.652;23.332;2023-08-12T11:12:48;94942.16;;;26.98;36.10
23176;BME280;19910;42.652;23.332;2023-08-12T11:15:17;94934.06;;;27.46;36.55
23176;BME280;19910;42.652;23.332;2023-08-12T11:17:47;94933.91;;;27.53;36.45
23176;BME280;19910;42.652;23.332;2023-08-12T11:20:14;94926.25;;;28.13;36.72
23176;BME280;19910;42.652;23.332;2023-08-12T11:22:42;94924.34;;;27.90;36.13
23176;BME280;19910;42.652;23.332;2023-08-12T11:25:10;94932.28;;;27.92;36.09
23176;BME280;19910;42.652;23.332;2023-08-12T11:27:39;94935.69;;;27.64;35.16
23176;BME280;19910;42.652;23.332;2023-08-12T11:30:07;94926.19;;;27.41;35.93
23176;BME280;19910;42.652;23.332;2023-08-12T11:32:37;94923.94;;;27.56;36.03
23176;BME280;19910;42.652;23.332;2023-08-12T11:35:08;94923.19;;;27.72;35.42
23176;BME280;19910;42.652;23.332;2023-08-12T11:37:35;94927.56;;;27.89;33.71
23176;BME280;19910;42.652;23.332;2023-08-12T11:40:05;94928.28;;;27.93;34.39
23176;BME280;19910;42.652;23.332;2023-08-12T11:42:34;94928.19;;;28.33;33.92
23176;BME280;19910;42.652;23.332;2023-08-12T11:45:02;94918.59;;;28.34;32.36
23176;BME280;19910;42.652;23.332;2023-08-12T11:47:29;94914.59;;;28.51;33.62
23176;BME280;19910;42.652;23.332;2023-08-12T11:49:57;94919.47;;;28.30;33.55
23176;BME280;19910;42.652;23.332;2023-08-12T11:52:25;94913.88;;;28.95;33.11
23176;BME280;19910;42.652;23.332;2023-08-12T11:54:52;94912.88;;;29.02;32.79
23176;BME280;19910;42.652;23.332;2023-08-12T11:57:22;94912.31;;;28.62;31.14
23176;BME280;19910;42.652;23.332;2023-08-12T11:59:49;94902.75;;;28.63;31.09
23176;BME280;19910;42.652;23.332;2023-08-12T12:02:16;94904.09;;;29.04;30.14
23176;BME280;19910;42.652;23.332;2023-08-12T12:04:42;94903.56;;;29.09;30.86
23176;BME280;19910;42.652;23.332;2023-08-12T12:07:21;94894.66;;;29.55;31.54
23176;BME280;19910;42.652;23.332;2023-08-12T12:09:50;94898.59;;;29.83;30.68
23176;BME280;19910;42.652;23.332;2023-08-12T12:12:22;94902.34;;;29.10;30.77
23176;BME280;19910;42.652;23.332;2023-08-12T12:14:51;94899.38;;;28.23;31.68
23176;BME280;19910;42.652;23.332;2023-08-12T12:17:20;94903.25;;;28.09;32.61
23176;BME280;19910;42.652;23.332;2023-08-12T12:19:52;94901.41;;;27.86;33.25
23176;BME280;19910;42.652;23.332;2023-08-12T12:22:25;94914.63;;;27.23;33.08
23176;BME280;19910;42.652;23.332;2023-08-12T12:24:52;94902.16;;;27.11;33.12
23176;BME280;19910;42.652;23.332;2023-08-12T12:27:19;94901.16;;;27.02;32.46
23176;BME280;19910;42.652;23.332;2023-08-12T12:29:45;94896.31;;;27.25;33.33
23176;BME280;19910;42.652;23.332;2023-08-12T12:32:12;94893.38;;;27.33;34.68
23176;BME280;19910;42.652;23.332;2023-08-12T12:34:39;94895.16;;;27.23;32.23
23176;BME280;19910;42.652;23.332;2023-08-12T12:37:06;94893.00;;;27.70;32.22
23176;BME280;19910;42.652;23.332;2023-08-12T12:39:34;94883.69;;;27.61;32.44
23176;BME280;19910;42.652;23.332;2023-08-12T12:42:01;94882.16;;;27.92;33.34
23176;BME280;19910;42.652;23.332;2023-08-12T12:44:28;94872.78;;;28.35;31.90
23176;BME280;19910;42.652;23.332;2023-08-12T12:46:55;94872.16;;;29.05;31.77
23176;BME280;19910;42.652;23.332;2023-08-12T12:49:22;94867.84;;;29.45;31.38
23176;BME280;19910;42.652;23.332;2023-08-12T12:51:49;94880.50;;;29.21;33.25
23176;BME280;19910;42.652;23.332;2023-08-12T12:54:16;94869.56;;;28.97;35.12
23176;BME280;19910;42.652;23.332;2023-08-12T12:56:44;94873.09;;;28.85;35.32